Colusa, California
Current Conditions -  °F | °C
As of 12:53 AM on Sunday 23 Nov 2014 (Local Time) from KMYV Reporting Station
Moderate Fog Moderate Fog  
Wind Chill: 47°   Ceiling: 200
Heat Index: 49°   Visibility: 0.25mi
Dew Point: 48°   Wind: 5mph
Humidity: 97%   Direction: 20°NNE
Pressure: 30.27"   Gusts: NA
Location:  39.21°N, 122.01°W
Report Text: KMYV 230853Z AUTO 02004KT 1/4SM FG VV002 09/09 A3027 RMK AO2 SLP254 T00940089 50001
Loading
Personal Weather Stations






























Interactive Weather Map New forecast layout! Learn more

10-Day Weather Forecast

Advertisements
Track Severe Weather on mobile